sensor_id;sensor_type;location;lat;lon;timestamp;temperature;humidity
11736;DHT22;5924;51.398;7.088;2023-03-23T00:02:28;10.30;99.90
11736;DHT22;5924;51.398;7.088;2023-03-23T00:04:55;10.30;99.90
11736;DHT22;5924;51.398;7.088;2023-03-23T00:07:22;10.30;99.90
11736;DHT22;5924;51.398;7.088;2023-03-23T00:09:53;10.30;99.90
11736;DHT22;5924;51.398;7.088;2023-03-23T00:12:24;10.40;99.90
11736;DHT22;5924;51.398;7.088;2023-03-23T00:15:03;10.40;99.90
11736;DHT22;5924;51.398;7.088;2023-03-23T00:17:29;10.40;99.90
11736;DHT22;5924;51.398;7.088;2023-03-23T00:19:55;10.40;99.90
11736;DHT22;5924;51.398;7.088;2023-03-23T00:22:21;10.40;99.90
11736;DHT22;5924;51.398;7.088;2023-03-23T00:24:50;10.50;99.90
11736;DHT22;5924;51.398;7.088;2023-03-23T00:27:17;10.50;99.90
11736;DHT22;5924;51.398;7.088;2023-03-23T00:29:43;10.50;99.90
11736;DHT22;5924;51.398;7.088;2023-03-23T00:32:10;10.60;99.90
11736;DHT22;5924;51.398;7.088;2023-03-23T00:34:40;10.60;99.90
11736;DHT22;5924;51.398;7.088;2023-03-23T00:37:08;10.70;99.90
11736;DHT22;5924;51.398;7.088;2023-03-23T00:39:35;10.80;99.90
11736;DHT22;5924;51.398;7.088;2023-03-23T00:42:03;10.80;99.90
11736;DHT22;5924;51.398;7.088;2023-03-23T00:44:30;10.80;99.90
11736;DHT22;5924;51.398;7.088;2023-03-23T00:46:57;10.80;99.90
11736;DHT22;5924;51.398;7.088;2023-03-23T00:49:24;10.80;99.90
11736;DHT22;5924;51.398;7.088;2023-03-23T00:51:52;10.80;99.90
11736;DHT22;5924;51.398;7.088;2023-03-23T00:54:19;10.80;99.90
11736;DHT22;5924;51.398;7.088;2023-03-23T00:56:46;10.90;99.90
11736;DHT22;5924;51.398;7.088;2023-03-23T00:59:12;10.90;99.90
11736;DHT22;5924;51.398;7.088;2023-03-23T01:01:37;10.90;99.90
11736;DHT22;5924;51.398;7.088;2023-03-23T01:04:03;10.90;99.90
11736;DHT22;5924;51.398;7.088;2023-03-23T01:06:31;10.90;99.90
11736;DHT22;5924;51.398;7.088;2023-03-23T01:08:58;10.90;99.90
11736;DHT22;5924;51.398;7.088;2023-03-23T01:11:24;10.90;99.90
11736;DHT22;5924;51.398;7.088;2023-03-23T01:13:51;10.80;99.90
11736;DHT22;5924;51.398;7.088;2023-03-23T01:16:17;10.80;99.90
11736;DHT22;5924;51.398;7.088;2023-03-23T01:18:42;10.80;99.90
11736;DHT22;5924;51.398;7.088;2023-03-23T01:21:14;10.70;99.90
11736;DHT22;5924;51.398;7.088;2023-03-23T01:23:41;10.70;99.90
11736;DHT22;5924;51.398;7.088;2023-03-23T01:26:09;10.70;99.90
11736;DHT22;5924;51.398;7.088;2023-03-23T01:28:35;10.60;99.90
11736;DHT22;5924;51.398;7.088;2023-03-23T01:31:06;10.60;99.90
11736;DHT22;5924;51.398;7.088;2023-03-23T01:33:33;10.70;99.90
11736;DHT22;5924;51.398;7.088;2023-03-23T01:36:03;10.60;99.90
11736;DHT22;5924;51.398;7.088;2023-03-23T01:38:29;10.60;99.90
11736;DHT22;5924;51.398;7.088;2023-03-23T01:40:56;9.20;99.90
11736;DHT22;5924;51.398;7.088;2023-03-23T01:43:22;10.60;99.90
11736;DHT22;5924;51.398;7.088;2023-03-23T01:45:47;10.60;99.90
11736;DHT22;5924;51.398;7.088;2023-03-23T01:48:21;10.60;99.90
11736;DHT22;5924;51.398;7.088;2023-03-23T01:51:08;10.70;99.90
11736;DHT22;5924;51.398;7.088;2023-03-23T01:53:39;10.70;99.90
11736;DHT22;5924;51.398;7.088;2023-03-23T01:56:07;10.70;99.90
11736;DHT22;5924;51.398;7.088;2023-03-23T01:58:34;10.70;99.90
11736;DHT22;5924;51.398;7.088;2023-03-23T02:01:04;10.60;99.90
11736;DHT22;5924;51.398;7.088;2023-03-23T02:03:35;10.70;99.90
11736;DHT22;5924;51.398;7.088;2023-03-23T02:06:01;10.70;99.90
11736;DHT22;5924;51.398;7.088;2023-03-23T02:08:28;10.70;99.90
11736;DHT22;5924;51.398;7.088;2023-03-23T02:10:57;10.60;99.90
11736;DHT22;5924;51.398;7.088;2023-03-23T02:13:23;10.60;99.90
11736;DHT22;5924;51.398;7.088;2023-03-23T02:27:06;10.80;99.90
11736;DHT22;5924;51.398;7.088;2023-03-23T02:33:16;10.70;99.90
11736;DHT22;5924;51.398;7.088;2023-03-23T02:35:53;10.70;99.90
11736;DHT22;5924;51.398;7.088;2023-03-23T02:38:30;10.70;99.90
11736;DHT22;5924;51.398;7.088;2023-03-23T02:40:59;10.70;99.90
11736;DHT22;5924;51.398;7.088;2023-03-23T02:43:31;10.70;99.90
11736;DHT22;5924;51.398;7.088;2023-03-23T02:45:59;10.70;99.90
11736;DHT22;5924;51.398;7.088;2023-03-23T02:48:29;10.60;99.90
11736;DHT22;5924;51.398;7.088;2023-03-23T02:50:55;12.00;99.90
11736;DHT22;5924;51.398;7.088;2023-03-23T02:53:24;10.60;99.90
11736;DHT22;5924;51.398;7.088;2023-03-23T02:55:52;10.60;99.90
11736;DHT22;5924;51.398;7.088;2023-03-23T02:58:20;10.60;99.90
11736;DHT22;5924;51.398;7.088;2023-03-23T03:00:51;10.50;99.90
11736;DHT22;5924;51.398;7.088;2023-03-23T03:03:20;10.50;99.90
11736;DHT22;5924;51.398;7.088;2023-03-23T03:08:51;10.50;99.90
11736;DHT22;5924;51.398;7.088;2023-03-23T03:11:18;10.50;99.90
11736;DHT22;5924;51.398;7.088;2023-03-23T03:21:41;10.60;99.90
11736;DHT22;5924;51.398;7.088;2023-03-23T03:24:08;10.60;99.90
11736;DHT22;5924;51.398;7.088;2023-03-23T03:26:39;10.70;99.90
11736;DHT22;5924;51.398;7.088;2023-03-23T03:29:07;10.80;99.90
11736;DHT22;5924;51.398;7.088;2023-03-23T03:31:38;10.80;99.90
11736;DHT22;5924;51.398;7.088;2023-03-23T03:34:05;10.80;99.90
11736;DHT22;5924;51.398;7.088;2023-03-23T03:36:34;10.80;99.90
11736;DHT22;5924;51.398;7.088;2023-03-23T03:39:08;10.80;99.90
11736;DHT22;5924;51.398;7.088;2023-03-23T03:41:36;10.80;99.90
11736;DHT22;5924;51.398;7.088;2023-03-23T03:44:03;10.90;99.90
11736;DHT22;5924;51.398;7.088;2023-03-23T03:46:29;10.90;99.90
11736;DHT22;5924;51.398;7.088;2023-03-23T03:49:00;10.90;99.90
11736;DHT22;5924;51.398;7.088;2023-03-23T03:51:27;11.00;99.90
11736;DHT22;5924;51.398;7.088;2023-03-23T03:53:53;11.00;99.90
11736;DHT22;5924;51.398;7.088;2023-03-23T03:56:19;11.00;99.90
11736;DHT22;5924;51.398;7.088;2023-03-23T03:58:45;11.00;99.90
11736;DHT22;5924;51.398;7.088;2023-03-23T04:01:14;11.00;99.90
11736;DHT22;5924;51.398;7.088;2023-03-23T04:03:41;11.00;99.90
11736;DHT22;5924;51.398;7.088;2023-03-23T04:06:07;11.00;99.90
11736;DHT22;5924;51.398;7.088;2023-03-23T04:08:34;11.00;99.90
11736;DHT22;5924;51.398;7.088;2023-03-23T04:11:01;11.00;99.90
11736;DHT22;5924;51.398;7.088;2023-03-23T04:13:26;11.00;99.90
11736;DHT22;5924;51.398;7.088;2023-03-23T04:15:52;11.00;99.90
11736;DHT22;5924;51.398;7.088;2023-03-23T04:18:18;11.00;99.90
11736;DHT22;5924;51.398;7.088;2023-03-23T04:20:45;11.00;99.90
11736;DHT22;5924;51.398;7.088;2023-03-23T04:23:13;11.10;99.90
11736;DHT22;5924;51.398;7.088;2023-03-23T04:25:39;11.10;99.90
11736;DHT22;5924;51.398;7.088;2023-03-23T04:28:07;11.10;99.90
11736;DHT22;5924;51.398;7.088;2023-03-23T04:30:35;11.10;99.90
11736;DHT22;5924;51.398;7.088;2023-03-23T04:33:02;11.10;99.90
11736;DHT22;5924;51.398;7.088;2023-03-23T04:35:28;11.10;99.90
11736;DHT22;5924;51.398;7.088;2023-03-23T04:37:55;11.10;99.90
11736;DHT22;5924;51.398;7.088;2023-03-23T04:40:21;11.10;99.90
11736;DHT22;5924;51.398;7.088;2023-03-23T04:42:47;11.10;99.90
11736;DHT22;5924;51.398;7.088;2023-03-23T04:45:16;11.20;99.90
11736;DHT22;5924;51.398;7.088;2023-03-23T04:47:50;11.20;99.90
11736;DHT22;5924;51.398;7.088;2023-03-23T04:50:23;11.20;99.90
11736;DHT22;5924;51.398;7.088;2023-03-23T04:52:50;11.20;99.90
11736;DHT22;5924;51.398;7.088;2023-03-23T04:55:18;11.20;99.90
11736;DHT22;5924;51.398;7.088;2023-03-23T04:57:44;11.20;99.90
11736;DHT22;5924;51.398;7.088;2023-03-23T05:00:11;11.30;99.90
11736;DHT22;5924;51.398;7.088;2023-03-23T05:02:40;11.30;99.90
11736;DHT22;5924;51.398;7.088;2023-03-23T05:05:10;11.40;99.90
11736;DHT22;5924;51.398;7.088;2023-03-23T05:07:38;11.30;99.90
11736;DHT22;5924;51.398;7.088;2023-03-23T05:10:05;11.30;99.90
11736;DHT22;5924;51.398;7.088;2023-03-23T05:12:31;11.30;99.90
11736;DHT22;5924;51.398;7.088;2023-03-23T05:14:57;11.30;99.90
11736;DHT22;5924;51.398;7.088;2023-03-23T05:17:23;11.30;99.90
11736;DHT22;5924;51.398;7.088;2023-03-23T05:19:50;11.30;99.90
11736;DHT22;5924;51.398;7.088;2023-03-23T05:22:16;11.30;99.90
11736;DHT22;5924;51.398;7.088;2023-03-23T05:24:43;11.30;99.90
11736;DHT22;5924;51.398;7.088;2023-03-23T05:27:11;11.30;99.90
11736;DHT22;5924;51.398;7.088;2023-03-23T05:29:37;11.30;99.90
11736;DHT22;5924;51.398;7.088;2023-03-23T05:32:07;11.30;99.90
11736;DHT22;5924;51.398;7.088;2023-03-23T05:34:36;11.40;99.90
11736;DHT22;5924;51.398;7.088;2023-03-23T05:37:03;11.40;99.90
11736;DHT22;5924;51.398;7.088;2023-03-23T05:39:29;11.40;99.90
11736;DHT22;5924;51.398;7.088;2023-03-23T05:41:56;11.40;99.90
11736;DHT22;5924;51.398;7.088;2023-03-23T05:44:22;11.40;99.90
11736;DHT22;5924;51.398;7.088;2023-03-23T05:46:48;11.40;99.90
11736;DHT22;5924;51.398;7.088;2023-03-23T05:49:16;11.40;99.90
11736;DHT22;5924;51.398;7.088;2023-03-23T05:51:45;11.40;99.90
11736;DHT22;5924;51.398;7.088;2023-03-23T05:54:11;11.40;99.90
11736;DHT22;5924;51.398;7.088;2023-03-23T05:56:37;11.40;99.90
11736;DHT22;5924;51.398;7.088;2023-03-23T05:59:03;11.40;99.90
11736;DHT22;5924;51.398;7.088;2023-03-23T06:01:29;11.40;99.90
11736;DHT22;5924;51.398;7.088;2023-03-23T06:03:54;11.40;99.90
11736;DHT22;5924;51.398;7.088;2023-03-23T06:06:24;11.30;99.90
11736;DHT22;5924;51.398;7.088;2023-03-23T06:08:50;11.50;99.90
11736;DHT22;5924;51.398;7.088;2023-03-23T06:11:16;11.50;99.90
11736;DHT22;5924;51.398;7.088;2023-03-23T06:13:41;11.50;99.90
11736;DHT22;5924;51.398;7.088;2023-03-23T06:16:07;11.60;99.90
11736;DHT22;5924;51.398;7.088;2023-03-23T06:18:34;11.60;99.90
11736;DHT22;5924;51.398;7.088;2023-03-23T06:21:02;11.60;99.90
11736;DHT22;5924;51.398;7.088;2023-03-23T06:23:28;11.60;99.90
11736;DHT22;5924;51.398;7.088;2023-03-23T06:25:57;11.70;99.90
11736;DHT22;5924;51.398;7.088;2023-03-23T06:28:23;11.70;99.90
11736;DHT22;5924;51.398;7.088;2023-03-23T06:30:49;11.70;99.90
11736;DHT22;5924;51.398;7.088;2023-03-23T06:33:15;11.70;99.90
11736;DHT22;5924;51.398;7.088;2023-03-23T06:35:42;11.70;99.90
11736;DHT22;5924;51.398;7.088;2023-03-23T06:38:08;11.80;99.90
11736;DHT22;5924;51.398;7.088;2023-03-23T06:40:34;11.80;99.90
11736;DHT22;5924;51.398;7.088;2023-03-23T06:43:01;11.80;99.90
11736;DHT22;5924;51.398;7.088;2023-03-23T06:45:27;11.90;99.90
11736;DHT22;5924;51.398;7.088;2023-03-23T06:47:53;11.90;99.90
11736;DHT22;5924;51.398;7.088;2023-03-23T06:50:18;11.90;99.90
11736;DHT22;5924;51.398;7.088;2023-03-23T06:52:48;12.00;99.90
11736;DHT22;5924;51.398;7.088;2023-03-23T06:55:14;12.00;99.90
11736;DHT22;5924;51.398;7.088;2023-03-23T06:57:41;13.40;99.90
11736;DHT22;5924;51.398;7.088;2023-03-23T07:00:09;12.10;99.90
11736;DHT22;5924;51.398;7.088;2023-03-23T07:02:38;12.10;99.90
11736;DHT22;5924;51.398;7.088;2023-03-23T07:05:04;12.10;99.90
11736;DHT22;5924;51.398;7.088;2023-03-23T07:07:30;12.20;99.90
11736;DHT22;5924;51.398;7.088;2023-03-23T07:09:56;12.20;99.90
11736;DHT22;5924;51.398;7.088;2023-03-23T07:12:23;12.30;99.90
11736;DHT22;5924;51.398;7.088;2023-03-23T07:14:49;12.30;99.90
11736;DHT22;5924;51.398;7.088;2023-03-23T07:17:15;12.30;99.90
11736;DHT22;5924;51.398;7.088;2023-03-23T07:19:41;12.30;99.90
11736;DHT22;5924;51.398;7.088;2023-03-23T07:22:07;12.30;99.90
11736;DHT22;5924;51.398;7.088;2023-03-23T07:24:34;12.30;99.90
11736;DHT22;5924;51.398;7.088;2023-03-23T07:27:00;12.30;99.90
11736;DHT22;5924;51.398;7.088;2023-03-23T07:29:25;12.30;99.90
11736;DHT22;5924;51.398;7.088;2023-03-23T07:31:52;12.40;99.90
11736;DHT22;5924;51.398;7.088;2023-03-23T07:34:19;12.40;99.90
11736;DHT22;5924;51.398;7.088;2023-03-23T07:36:45;12.50;99.90
11736;DHT22;5924;51.398;7.088;2023-03-23T07:39:11;12.50;99.90
11736;DHT22;5924;51.398;7.088;2023-03-23T07:41:37;12.60;99.90
11736;DHT22;5924;51.398;7.088;2023-03-23T07:44:04;12.90;99.90
11736;DHT22;5924;51.398;7.088;2023-03-23T07:46:30;12.60;99.90
11736;DHT22;5924;51.398;7.088;2023-03-23T07:48:56;12.60;99.90
11736;DHT22;5924;51.398;7.088;2023-03-23T07:51:22;12.30;99.90
11736;DHT22;5924;51.398;7.088;2023-03-23T07:53:49;12.60;99.90
11736;DHT22;5924;51.398;7.088;2023-03-23T07:56:15;12.60;99.90
11736;DHT22;5924;51.398;7.088;2023-03-23T07:58:44;12.70;99.90
11736;DHT22;5924;51.398;7.088;2023-03-23T08:01:10;12.70;99.90
11736;DHT22;5924;51.398;7.088;2023-03-23T08:03:36;12.70;99.90
11736;DHT22;5924;51.398;7.088;2023-03-23T08:06:02;12.80;99.90
11736;DHT22;5924;51.398;7.088;2023-03-23T08:08:28;12.80;99.90
11736;DHT22;5924;51.398;7.088;2023-03-23T08:10:54;12.80;99.90
11736;DHT22;5924;51.398;7.088;2023-03-23T08:13:20;12.80;99.90
11736;DHT22;5924;51.398;7.088;2023-03-23T08:15:45;12.80;99.90
11736;DHT22;5924;51.398;7.088;2023-03-23T08:18:11;12.90;99.90
11736;DHT22;5924;51.398;7.088;2023-03-23T08:20:37;12.90;99.90
11736;DHT22;5924;51.398;7.088;2023-03-23T08:23:03;12.90;99.90
11736;DHT22;5924;51.398;7.088;2023-03-23T08:25:30;13.00;99.90
11736;DHT22;5924;51.398;7.088;2023-03-23T08:27:59;13.00;99.90
11736;DHT22;5924;51.398;7.088;2023-03-23T08:30:28;13.10;99.90
11736;DHT22;5924;51.398;7.088;2023-03-23T08:32:58;13.20;99.90
11736;DHT22;5924;51.398;7.088;2023-03-23T08:35:24;13.30;99.90
11736;DHT22;5924;51.398;7.088;2023-03-23T08:37:50;13.30;99.90
11736;DHT22;5924;51.398;7.088;2023-03-23T08:40:17;13.40;99.90
11736;DHT22;5924;51.398;7.088;2023-03-23T08:42:45;13.50;99.90
11736;DHT22;5924;51.398;7.088;2023-03-23T08:45:13;13.70;99.90
11736;DHT22;5924;51.398;7.088;2023-03-23T08:47:41;13.80;99.90
11736;DHT22;5924;51.398;7.088;2023-03-23T08:50:09;13.90;99.90
11736;DHT22;5924;51.398;7.088;2023-03-23T08:52:36;13.90;99.90
11736;DHT22;5924;51.398;7.088;2023-03-23T08:55:03;13.80;99.90
11736;DHT22;5924;51.398;7.088;2023-03-23T08:57:29;13.70;99.90
11736;DHT22;5924;51.398;7.088;2023-03-23T08:59:55;13.80;99.90
11736;DHT22;5924;51.398;7.088;2023-03-23T09:02:26;13.90;99.90
11736;DHT22;5924;51.398;7.088;2023-03-23T09:04:53;14.00;99.90
11736;DHT22;5924;51.398;7.088;2023-03-23T09:07:19;14.10;99.90
11736;DHT22;5924;51.398;7.088;2023-03-23T09:09:45;14.10;99.90
11736;DHT22;5924;51.398;7.088;2023-03-23T09:12:11;14.10;99.90
11736;DHT22;5924;51.398;7.088;2023-03-23T09:14:38;14.00;99.90
11736;DHT22;5924;51.398;7.088;2023-03-23T09:17:04;13.90;99.90
11736;DHT22;5924;51.398;7.088;2023-03-23T09:19:32;13.80;99.90
11736;DHT22;5924;51.398;7.088;2023-03-23T09:21:59;13.70;99.90
11736;DHT22;5924;51.398;7.088;2023-03-23T09:24:24;13.60;99.90
11736;DHT22;5924;51.398;7.088;2023-03-23T09:26:50;13.60;99.90
11736;DHT22;5924;51.398;7.088;2023-03-23T09:29:16;13.60;99.90
11736;DHT22;5924;51.398;7.088;2023-03-23T09:31:44;13.50;99.90
11736;DHT22;5924;51.398;7.088;2023-03-23T09:34:12;13.50;99.90
11736;DHT22;5924;51.398;7.088;2023-03-23T09:36:38;13.50;99.90
11736;DHT22;5924;51.398;7.088;2023-03-23T09:39:07;13.50;99.90
11736;DHT22;5924;51.398;7.088;2023-03-23T09:49:56;13.60;99.90
11736;DHT22;5924;51.398;7.088;2023-03-23T09:52:30;13.50;99.90
11736;DHT22;5924;51.398;7.088;2023-03-23T09:54:58;13.50;99.90
11736;DHT22;5924;51.398;7.088;2023-03-23T09:57:49;13.40;99.90
11736;DHT22;5924;51.398;7.088;2023-03-23T10:00:18;13.40;99.90
11736;DHT22;5924;51.398;7.088;2023-03-23T10:03:16;13.40;99.90
11736;DHT22;5924;51.398;7.088;2023-03-23T10:05:48;13.30;99.90
11736;DHT22;5924;51.398;7.088;2023-03-23T10:08:33;13.00;99.90
11736;DHT22;5924;51.398;7.088;2023-03-23T10:16:23;12.10;99.90
11736;DHT22;5924;51.398;7.088;2023-03-23T10:21:28;10.60;99.90
11736;DHT22;5924;51.398;7.088;2023-03-23T10:24:00;10.40;99.90
11736;DHT22;5924;51.398;7.088;2023-03-23T10:26:44;12.00;99.90
11736;DHT22;5924;51.398;7.088;2023-03-23T10:31:52;10.10;99.90
11736;DHT22;5924;51.398;7.088;2023-03-23T10:34:35;10.00;99.90
11736;DHT22;5924;51.398;7.088;2023-03-23T10:37:18;10.00;99.90
11736;DHT22;5924;51.398;7.088;2023-03-23T10:39:56;10.00;99.90
11736;DHT22;5924;51.398;7.088;2023-03-23T10:44:53;10.20;99.90
11736;DHT22;5924;51.398;7.088;2023-03-23T10:47:20;10.20;99.90
11736;DHT22;5924;51.398;7.088;2023-03-23T10:49:51;10.20;99.90
11736;DHT22;5924;51.398;7.088;2023-03-23T10:52:43;10.20;99.90
11736;DHT22;5924;51.398;7.088;2023-03-23T10:55:16;10.20;99.90
11736;DHT22;5924;51.398;7.088;2023-03-23T10:57:45;10.20;99.90
11736;DHT22;5924;51.398;7.088;2023-03-23T11:02:57;10.30;99.90
11736;DHT22;5924;51.398;7.088;2023-03-23T11:05:48;10.30;99.90
11736;DHT22;5924;51.398;7.088;2023-03-23T11:08:24;10.30;99.90
11736;DHT22;5924;51.398;7.088;2023-03-23T11:10:51;10.30;99.90
11736;DHT22;5924;51.398;7.088;2023-03-23T11:13:19;10.10;99.90
11736;DHT22;5924;51.398;7.088;2023-03-23T11:15:47;10.00;99.90
11736;DHT22;5924;51.398;7.088;2023-03-23T11:18:35;9.90;99.90
11736;DHT22;5924;51.398;7.088;2023-03-23T11:21:02;9.80;99.90
11736;DHT22;5924;51.398;7.088;2023-03-23T11:23:33;9.80;99.90
11736;DHT22;5924;51.398;7.088;2023-03-23T11:31:29;9.80;99.90
11736;DHT22;5924;51.398;7.088;2023-03-23T11:34:05;9.90;99.90
11736;DHT22;5924;51.398;7.088;2023-03-23T11:36:41;9.90;99.90
11736;DHT22;5924;51.398;7.088;2023-03-23T11:39:47;9.90;99.90
11736;DHT22;5924;51.398;7.088;2023-03-23T11:42:25;9.90;99.90
11736;DHT22;5924;51.398;7.088;2023-03-23T11:51:07;10.00;99.90
11736;DHT22;5924;51.398;7.088;2023-03-23T11:58:50;10.30;99.90
11736;DHT22;5924;51.398;7.088;2023-03-23T12:01:31;10.60;99.90
11736;DHT22;5924;51.398;7.088;2023-03-23T12:04:25;10.80;99.90
11736;DHT22;5924;51.398;7.088;2023-03-23T12:07:14;11.00;99.90
11736;DHT22;5924;51.398;7.088;2023-03-23T12:24:41;11.00;99.90
11736;DHT22;5924;51.398;7.088;2023-03-23T12:35:18;10.90;99.90
11736;DHT22;5924;51.398;7.088;2023-03-23T12:43:51;11.90;99.90
11736;DHT22;5924;51.398;7.088;2023-03-23T12:49:17;10.50;99.90
11736;DHT22;5924;51.398;7.088;2023-03-23T12:52:04;10.20;99.90
11736;DHT22;5924;51.398;7.088;2023-03-23T13:08:04;10.30;99.90
11736;DHT22;5924;51.398;7.088;2023-03-23T13:10:51;10.80;99.90
11736;DHT22;5924;51.398;7.088;2023-03-23T13:13:23;10.80;99.90
11736;DHT22;5924;51.398;7.088;2023-03-23T13:16:10;10.80;99.90
11736;DHT22;5924;51.398;7.088;2023-03-23T13:21:41;10.80;99.90
11736;DHT22;5924;51.398;7.088;2023-03-23T13:24:14;11.00;99.90
11736;DHT22;5924;51.398;7.088;2023-03-23T13:26:42;11.40;99.90
11736;DHT22;5924;51.398;7.088;2023-03-23T13:29:13;11.70;99.90
11736;DHT22;5924;51.398;7.088;2023-03-23T13:31:41;12.10;99.90
11736;DHT22;5924;51.398;7.088;2023-03-23T13:34:19;12.70;99.90
11736;DHT22;5924;51.398;7.088;2023-03-23T13:40:16;13.50;99.90
11736;DHT22;5924;51.398;7.088;2023-03-23T13:42:51;13.30;99.90
11736;DHT22;5924;51.398;7.088;2023-03-23T13:47:47;11.50;99.90
11736;DHT22;5924;51.398;7.088;2023-03-23T13:50:43;14.10;99.90
11736;DHT22;5924;51.398;7.088;2023-03-23T13:53:14;12.50;99.90
11736;DHT22;5924;51.398;7.088;2023-03-23T13:55:50;12.40;99.90
11736;DHT22;5924;51.398;7.088;2023-03-23T13:58:24;13.90;99.90
11736;DHT22;5924;51.398;7.088;2023-03-23T14:03:38;12.50;99.90
11736;DHT22;5924;51.398;7.088;2023-03-23T14:06:07;12.40;99.90
11736;DHT22;5924;51.398;7.088;2023-03-23T14:08:42;12.90;99.90
11736;DHT22;5924;51.398;7.088;2023-03-23T14:11:27;12.50;99.90
11736;DHT22;5924;51.398;7.088;2023-03-23T14:14:05;12.50;99.90
11736;DHT22;5924;51.398;7.088;2023-03-23T14:19:24;12.60;99.90
11736;DHT22;5924;51.398;7.088;2023-03-23T14:21:56;12.70;99.90
11736;DHT22;5924;51.398;7.088;2023-03-23T14:24:25;11.40;99.90
11736;DHT22;5924;51.398;7.088;2023-03-23T14:26:53;12.60;99.90
11736;DHT22;5924;51.398;7.088;2023-03-23T14:29:26;11.40;99.90
11736;DHT22;5924;51.398;7.088;2023-03-23T14:31:57;12.60;99.90
11736;DHT22;5924;51.398;7.088;2023-03-23T14:34:26;12.50;99.90
11736;DHT22;5924;51.398;7.088;2023-03-23T14:36:56;12.40;99.90
11736;DHT22;5924;51.398;7.088;2023-03-23T14:39:26;12.70;99.90
11736;DHT22;5924;51.398;7.088;2023-03-23T14:41:57;13.30;99.90
11736;DHT22;5924;51.398;7.088;2023-03-23T14:44:30;13.60;99.90
11736;DHT22;5924;51.398;7.088;2023-03-23T14:47:00;13.80;99.90
11736;DHT22;5924;51.398;7.088;2023-03-23T14:49:35;13.90;99.90
11736;DHT22;5924;51.398;7.088;2023-03-23T14:52:10;13.80;99.90
11736;DHT22;5924;51.398;7.088;2023-03-23T14:54:37;13.60;99.90
11736;DHT22;5924;51.398;7.088;2023-03-23T14:57:16;12.90;99.90
11736;DHT22;5924;51.398;7.088;2023-03-23T14:59:43;13.90;99.90
11736;DHT22;5924;51.398;7.088;2023-03-23T15:02:16;13.80;99.90
11736;DHT22;5924;51.398;7.088;2023-03-23T15:04:47;13.60;99.90
11736;DHT22;5924;51.398;7.088;2023-03-23T15:07:15;14.50;99.90
11736;DHT22;5924;51.398;7.088;2023-03-23T15:09:44;13.50;99.90
11736;DHT22;5924;51.398;7.088;2023-03-23T15:12:31;13.10;99.90
11736;DHT22;5924;51.398;7.088;2023-03-23T15:15:02;14.00;99.90
11736;DHT22;5924;51.398;7.088;2023-03-23T15:17:35;14.70;99.90
11736;DHT22;5924;51.398;7.088;2023-03-23T15:20:23;14.80;99.90
11736;DHT22;5924;51.398;7.088;2023-03-23T15:22:50;14.60;99.90
11736;DHT22;5924;51.398;7.088;2023-03-23T15:28:21;14.70;99.90
11736;DHT22;5924;51.398;7.088;2023-03-23T15:31:00;14.90;99.90
11736;DHT22;5924;51.398;7.088;2023-03-23T15:33:26;14.90;99.90
11736;DHT22;5924;51.398;7.088;2023-03-23T15:35:54;14.80;99.90
11736;DHT22;5924;51.398;7.088;2023-03-23T15:40:51;14.70;99.90
11736;DHT22;5924;51.398;7.088;2023-03-23T15:43:18;14.70;99.90
11736;DHT22;5924;51.398;7.088;2023-03-23T15:51:16;17.10;99.90
11736;DHT22;5924;51.398;7.088;2023-03-23T15:53:43;15.00;99.90
11736;DHT22;5924;51.398;7.088;2023-03-23T15:56:11;15.10;99.90
11736;DHT22;5924;51.398;7.088;2023-03-23T15:58:38;15.20;99.90
11736;DHT22;5924;51.398;7.088;2023-03-23T16:04:12;15.70;99.90
11736;DHT22;5924;51.398;7.088;2023-03-23T16:06:39;17.30;99.90
11736;DHT22;5924;51.398;7.088;2023-03-23T16:09:06;15.80;99.90
11736;DHT22;5924;51.398;7.088;2023-03-23T16:11:32;15.10;99.90
11736;DHT22;5924;51.398;7.088;2023-03-23T16:13:59;15.80;99.90
11736;DHT22;5924;51.398;7.088;2023-03-23T16:16:33;14.40;99.90
11736;DHT22;5924;51.398;7.088;2023-03-23T16:18:59;15.60;99.90
11736;DHT22;5924;51.398;7.088;2023-03-23T16:21:25;14.80;99.90
11736;DHT22;5924;51.398;7.088;2023-03-23T16:23:51;15.50;99.90
11736;DHT22;5924;51.398;7.088;2023-03-23T16:26:17;15.40;99.90
11736;DHT22;5924;51.398;7.088;2023-03-23T16:28:43;15.50;99.90
11736;DHT22;5924;51.398;7.088;2023-03-23T16:31:10;15.70;99.90
11736;DHT22;5924;51.398;7.088;2023-03-23T16:33:35;16.00;99.90
11736;DHT22;5924;51.398;7.088;2023-03-23T16:36:01;17.40;99.90
11736;DHT22;5924;51.398;7.088;2023-03-23T16:38:27;16.50;99.90
11736;DHT22;5924;51.398;7.088;2023-03-23T16:40:53;17.50;99.90
11736;DHT22;5924;51.398;7.088;2023-03-23T16:43:19;16.30;99.90
11736;DHT22;5924;51.398;7.088;2023-03-23T16:45:46;16.00;99.90
11736;DHT22;5924;51.398;7.088;2023-03-23T16:48:14;15.80;99.90
11736;DHT22;5924;51.398;7.088;2023-03-23T16:50:41;15.20;99.90
11736;DHT22;5924;51.398;7.088;2023-03-23T16:53:08;15.30;99.90
11736;DHT22;5924;51.398;7.088;2023-03-23T16:55:35;15.00;99.90
11736;DHT22;5924;51.398;7.088;2023-03-23T16:58:02;14.60;99.90
11736;DHT22;5924;51.398;7.088;2023-03-23T17:00:28;14.20;99.90
11736;DHT22;5924;51.398;7.088;2023-03-23T17:02:55;14.00;99.90
11736;DHT22;5924;51.398;7.088;2023-03-23T17:05:27;13.70;99.90
11736;DHT22;5924;51.398;7.088;2023-03-23T17:07:53;13.50;99.90
11736;DHT22;5924;51.398;7.088;2023-03-23T17:10:24;13.30;99.90
11736;DHT22;5924;51.398;7.088;2023-03-23T17:12:52;13.30;99.90
11736;DHT22;5924;51.398;7.088;2023-03-23T17:15:18;13.20;99.90
11736;DHT22;5924;51.398;7.088;2023-03-23T17:17:44;14.50;99.90
11736;DHT22;5924;51.398;7.088;2023-03-23T17:20:10;14.30;99.90
11736;DHT22;5924;51.398;7.088;2023-03-23T17:22:37;12.80;99.90
11736;DHT22;5924;51.398;7.088;2023-03-23T17:25:04;12.70;99.90
11736;DHT22;5924;51.398;7.088;2023-03-23T17:27:30;12.40;99.90
11736;DHT22;5924;51.398;7.088;2023-03-23T17:29:56;12.60;99.90
11736;DHT22;5924;51.398;7.088;2023-03-23T17:32:22;12.20;99.90
11736;DHT22;5924;51.398;7.088;2023-03-23T17:34:49;13.90;99.90
11736;DHT22;5924;51.398;7.088;2023-03-23T17:37:15;12.50;99.90
11736;DHT22;5924;51.398;7.088;2023-03-23T17:39:41;12.50;99.90
11736;DHT22;5924;51.398;7.088;2023-03-23T17:42:07;12.50;99.90
11736;DHT22;5924;51.398;7.088;2023-03-23T17:44:33;12.40;99.90
11736;DHT22;5924;51.398;7.088;2023-03-23T17:46:59;12.40;99.90
11736;DHT22;5924;51.398;7.088;2023-03-23T17:49:25;12.40;99.90
11736;DHT22;5924;51.398;7.088;2023-03-23T17:51:51;12.40;99.90
11736;DHT22;5924;51.398;7.088;2023-03-23T17:54:17;12.40;99.90
11736;DHT22;5924;51.398;7.088;2023-03-23T17:56:43;12.60;99.90
11736;DHT22;5924;51.398;7.088;2023-03-23T17:59:09;12.40;99.90
11736;DHT22;5924;51.398;7.088;2023-03-23T18:01:35;12.40;99.90
11736;DHT22;5924;51.398;7.088;2023-03-23T18:04:01;12.00;99.90
11736;DHT22;5924;51.398;7.088;2023-03-23T18:06:29;11.80;99.90
11736;DHT22;5924;51.398;7.088;2023-03-23T18:08:55;12.20;99.90
11736;DHT22;5924;51.398;7.088;2023-03-23T18:11:20;12.10;99.90
11736;DHT22;5924;51.398;7.088;2023-03-23T18:13:46;12.00;99.90
11736;DHT22;5924;51.398;7.088;2023-03-23T18:16:12;11.90;99.90
11736;DHT22;5924;51.398;7.088;2023-03-23T18:18:38;11.80;99.90
11736;DHT22;5924;51.398;7.088;2023-03-23T18:21:07;11.80;99.90